Flight Track Log - Related Links

Times and Time Zones

All times are in EDT time to prevent confusion due to time zone crossing. See the UAL3836 flight status page for this flight to view local times or setup timezone preferences in your user account.

Time Position Orientation Groundspeed Altitude Reporting Facility
EDT Latitude Longitude Course Direction KTS MPH feet Rate Location/Type
Tue 06:08:16 PM 42.0333 -87.9833 346° North 210 242 2,900  Level Chicago TRACON
Tue 06:09:54 PM 42.1228 -88.0369 336° Northwest 267 307 4,900 1,238 Climbing Chicago Center
Tue 06:10:56 PM 42.2156 -88.0367 360° North 295 339 6,200 1,790 Climbing Chicago Center
Tue 06:11:58 PM 42.2950 -88.0369 360° North 288 331 8,600 2,323 Climbing Chicago Center
Tue 06:13:00 PM 42.3034 -88.1003 346° North  Level Estimated
Tue 06:13:00 PM 42.3831 -88.0378 360° North 292 336 11,000  Level Chicago Center
Tue 06:14:02 PM 42.4694 -88.0481 355° North 309 356 12,600 1,306 Climbing Chicago Center
Tue 06:15:04 PM 42.5606 -88.0831 344° North 336 387 13,700 1,104 Climbing Chicago Center
Tue 06:16:07 PM 42.6569 -88.1186 345° North 354 407 14,900 1,056 Climbing Chicago Center
Tue 06:17:09 PM 42.7464 -88.1839 332° Northwest 362 417 15,900 532 Climbing Chicago Center
Tue 06:18:11 PM 42.8394 -88.2486 333° Northwest 373 429 16,000 48 Climbing Chicago Center
Tue 06:19:13 PM 42.9514 -88.3278 333° Northwest 376 433 16,000  Level Chicago Center
Tue 06:20:15 PM 43.0447 -88.3936 333° Northwest 378 435 16,000  Level Chicago Center
Tue 06:21:17 PM 43.1394 -88.4594 333° Northwest 380 437 16,000  Level Chicago Center
Tue 06:22:19 PM 43.2331 -88.5256 333° Northwest 377 434 16,000  Level Chicago Center
Tue 06:23:21 PM 43.3258 -88.5931 332° Northwest 374 430 16,000  Level Chicago Center
Tue 06:24:23 PM 43.4197 -88.6600 333° Northwest 372 428 16,000 -39 Level Chicago Center
Tue 06:25:56 PM 43.5717 -88.7692 333° Northwest 372 428 15,900 -48 Descending Minneapolis Center
Tue 06:26:28 PM 43.6058 -88.7953 331° Northwest 374 430 15,900 64 Level Chicago Center
Tue 06:27:30 PM 43.7161 -88.8753 332° Northwest 372 428 16,000 -581 Climbing Chicago Center
Tue 06:28:32 PM 43.8061 -88.9411 332° Northwest 368 423 14,700 -968 Descending Chicago Center
Tue 06:29:34 PM 43.8956 -89.0069 332° Northwest 366 421 14,000 -339 Descending Chicago Center
Tue 06:30:36 PM 43.9847 -89.0736 332° Northwest 365 420 14,000  Level Chicago Center
Tue 06:31:38 PM 44.0725 -89.1450 330° Northwest 367 422 14,000  Level Chicago Center
Tue 06:32:09 PM 44.1317 -89.1936 329° Northwest 368 423 14,000 -452 Level Minneapolis Center
Tue 06:33:11 PM 44.2228 -89.2678 330° Northwest 365 420 13,300 -1,355 Descending Minneapolis Center
Tue 06:34:13 PM 44.3033 -89.3328 330° Northwest 350 403 11,200 -1,597 Descending Minneapolis Center
Tue 06:35:15 PM 44.3769 -89.3944 329° Northwest 299 344 10,000 -1,500 Descending Minneapolis Center
Tue 06:36:17 PM 44.4439 -89.4500 329° Northwest 272 313 8,100 -1,839 Descending Minneapolis Center
Tue 06:37:19 PM 44.5083 -89.5033 329° Northwest 261 300 6,200 -1,742 Descending Minneapolis Center
Tue 06:38:21 PM 44.5569 -89.5744 314° West 247 284 4,500 -1,500 Descending Minneapolis Center
Tue 06:39:23 PM 44.6114 -89.6250 327° Northwest 245 282 3,100 -677 Descending Minneapolis Center
Tue 06:40:25 PM 44.6697 -89.6497 343° North 213 245 3,100 -387 Level Minneapolis Center
Tue 06:41:27 PM 44.7181 -89.6617 350° North 175 201 2,300 -480 Descending Minneapolis Center
Tue 06:42:30 PM 44.7542 -89.6739 346° North 165 190 2,100 -190 Descending Minneapolis Center

Login

Don't have an account? Register now (free) for customized features, flight alerts, and more!